Time;durP1;ratioP1;P1;durP2;ratioP2;P2;SDS_P1;SDS_P2;PMS_P1;PMS_P2;Temp;Humidity;BMP_temperature;BMP_pressure;BME280_temperature;BME280_humidity;BME280_pressure;Samples;Min_cycle;Max_cycle;Signal;HPM_P1;HPM_P2
2022/04/21 00:00:04;;;;;;;95.90;54.00;;;6.80;99.90;;;;;;4977191;28;20058;-59
2022/04/21 00:02:30;;;;;;;114.10;62.72;;;6.70;99.90;;;;;;4977115;28;20026;-60
2022/04/21 00:04:56;;;;;;;107.22;61.70;;;6.70;99.90;;;;;;4977250;28;20018;-57
2022/04/21 00:07:22;;;;;;;75.40;45.42;;;6.60;99.90;;;;;;4977040;28;20121;-57
2022/04/21 00:09:49;;;;;;;63.22;39.50;;;6.50;99.90;;;;;;4976843;28;20034;-60
2022/04/21 00:12:15;;;;;;;56.28;34.22;;;6.50;99.90;;;;;;4977078;28;20023;-61
2022/04/21 00:14:40;;;;;;;52.13;33.47;;;6.60;99.90;;;;;;4977062;28;20021;-58
2022/04/21 00:17:08;;;;;;;43.22;27.52;;;6.60;99.90;;;;;;4977142;28;20139;-57
2022/04/21 00:19:34;;;;;;;39.08;25.42;;;6.60;99.90;;;;;;4976533;28;20061;-58
2022/04/21 00:24:45;;;;;;;41.90;26.20;;;6.60;99.90;;;;;;4977007;28;20113;-59
2022/04/21 00:27:11;;;;;;;34.53;22.73;;;6.60;99.90;;;;;;4976960;28;20058;-61
2022/04/21 00:29:37;;;;;;;49.25;31.02;;;6.60;99.90;;;;;;4976783;28;20027;-59
2022/04/21 00:32:03;;;;;;;43.22;27.98;;;6.60;99.90;;;;;;4976614;28;20023;-60
2022/04/21 00:34:29;;;;;;;36.03;23.60;;;6.50;99.90;;;;;;4976871;28;20027;-63
2022/04/21 00:36:54;;;;;;;50.75;32.10;;;6.50;99.90;;;;;;4976632;28;20018;-56
2022/04/21 00:39:20;;;;;;;42.58;26.75;;;6.40;99.90;;;;;;4976281;28;20035;-62
2022/04/21 00:41:46;;;;;;;37.75;25.90;;;6.30;99.90;;;;;;4976516;28;20027;-55
2022/04/21 00:44:11;;;;;;;31.63;21.27;;;6.20;99.90;;;;;;4976503;28;20470;-58
2022/04/21 00:46:38;;;;;;;35.80;22.77;;;6.30;99.90;;;;;;4976233;28;20023;-59
2022/04/21 00:49:08;;;;;;;26.80;18.23;;;6.40;99.90;;;;;;4976252;28;20066;-59
2022/04/21 00:51:35;;;;;;;37.50;23.80;;;6.40;99.90;;;;;;4975998;28;20089;-60
2022/04/21 00:54:02;;;;;;;29.70;19.98;;;6.40;99.90;;;;;;4975965;28;20481;-62
2022/04/21 00:56:29;;;;;;;27.35;19.17;;;6.40;99.90;;;;;;4976327;28;20093;-61
2022/04/21 00:58:56;;;;;;;27.05;17.95;;;6.40;99.90;;;;;;4976449;28;20103;-60
2022/04/21 01:04:08;;;;;;;26.00;18.00;;;6.30;99.90;;;;;;4976174;28;20030;-56
2022/04/21 01:06:34;;;;;;;24.80;17.08;;;6.30;99.90;;;;;;4976209;28;20026;-58
2022/04/21 01:09:00;;;;;;;26.23;18.40;;;6.30;99.90;;;;;;4975750;28;20465;-61
2022/04/21 01:11:25;;;;;;;30.30;19.40;;;6.30;99.90;;;;;;4975965;28;20161;-63
2022/04/21 01:13:51;;;;;;;25.25;17.42;;;6.30;99.90;;;;;;4975845;28;20046;-62
2022/04/21 01:16:17;;;;;;;25.73;17.33;;;6.30;99.90;;;;;;4975781;28;20105;-54
2022/04/21 01:18:43;;;;;;;24.35;17.38;;;6.30;99.90;;;;;;4975747;28;20062;-55
2022/04/21 01:21:09;;;;;;;26.13;17.33;;;6.20;99.90;;;;;;4975738;28;20453;-58
2022/04/21 01:23:34;;;;;;;37.40;23.75;;;6.20;99.90;;;;;;4975448;28;20109;-57
2022/04/21 01:26:01;;;;;;;27.50;17.20;;;6.20;99.90;;;;;;4975608;28;20029;-58
2022/04/21 01:28:29;;;;;;;29.23;19.42;;;6.10;99.90;;;;;;4975525;28;20038;-57
2022/04/21 01:30:55;;;;;;;27.25;16.40;;;6.20;99.90;;;;;;4975355;28;20113;-57
2022/04/21 01:33:21;;;;;;;28.63;18.90;;;6.20;99.90;;;;;;4974297;28;20389;-60
2022/04/21 01:35:47;;;;;;;21.48;14.45;;;6.20;99.90;;;;;;4975558;28;20093;-60
2022/04/21 01:41:08;;;;;;;;;;;6.10;99.90;;;;;;4975861;28;20058;-59
2022/04/21 01:43:35;;;;;;;21.88;14.00;;;6.20;99.90;;;;;;4975290;28;19909;-61
2022/04/21 01:46:01;;;;;;;18.67;13.15;;;6.20;99.90;;;;;;4975529;28;20026;-56
2022/04/21 01:48:27;;;;;;;20.20;13.60;;;6.20;99.90;;;;;;4975198;28;20121;-57
2022/04/21 01:50:53;;;;;;;19.73;12.85;;;6.10;99.90;;;;;;4975162;28;20106;-58
2022/04/21 01:53:19;;;;;;;19.63;12.45;;;6.10;99.90;;;;;;4974756;28;20134;-59
2022/04/21 01:55:46;;;;;;;25.42;18.63;;;6.10;99.90;;;;;;4975282;28;20026;-59
2022/04/21 01:58:11;;;;;;;29.10;20.30;;;6.10;99.90;;;;;;4975291;28;20038;-57
2022/04/21 02:00:37;;;;;;;26.30;17.58;;;5.90;99.90;;;;;;4975073;28;20106;-58
2022/04/21 02:03:03;;;;;;;46.45;30.60;;;5.80;99.90;;;;;;4975024;28;20073;-56
2022/04/21 02:05:28;;;;;;;55.78;33.88;;;5.70;99.90;;;;;;4974698;28;20074;-58
2022/04/21 02:07:54;;;;;;;60.58;38.60;;;5.60;99.90;;;;;;4975125;28;20037;-58
2022/04/21 02:10:24;;;;;;;44.95;28.23;;;5.50;99.90;;;;;;4974899;28;20026;-57
2022/04/21 02:12:50;;;;;;;48.97;31.42;;;5.50;99.90;;;;;;4974754;28;20470;-59
2022/04/21 02:15:19;;;;;;;44.85;26.88;;;5.50;99.90;;;;;;4975106;28;20026;-60
2022/04/21 02:17:45;;;;;;;46.15;26.58;;;5.50;99.90;;;;;;4975050;28;20034;-62
2022/04/21 02:20:16;;;;;;;56.90;33.75;;;5.60;99.90;;;;;;4974751;28;20121;-60
2022/04/21 02:22:43;;;;;;;52.28;33.10;;;5.60;99.90;;;;;;4975002;28;20034;-59
2022/04/21 02:25:10;;;;;;;42.65;26.95;;;5.40;99.90;;;;;;4974976;28;20045;-58
2022/04/21 02:27:37;;;;;;;37.05;24.35;;;5.40;99.90;;;;;;4974834;28;20118;-57
2022/04/21 02:30:05;;;;;;;41.28;28.35;;;5.50;99.90;;;;;;4974721;28;20019;-60
2022/04/21 02:32:30;;;;;;;41.40;27.55;;;5.50;99.90;;;;;;4974545;28;20019;-61
2022/04/21 02:34:57;;;;;;;31.08;21.08;;;5.40;99.90;;;;;;4974556;28;20081;-61
2022/04/21 02:37:23;;;;;;;32.80;20.48;;;5.40;99.90;;;;;;4974597;28;20025;-62
2022/04/21 02:39:52;;;;;;;29.52;19.52;;;5.50;99.90;;;;;;4974858;28;20031;-59
2022/04/21 02:42:21;;;;;;;37.53;24.75;;;5.50;99.90;;;;;;4974491;28;20023;-62
2022/04/21 02:44:48;;;;;;;39.28;25.67;;;5.50;99.90;;;;;;4973993;28;20390;-58
2022/04/21 02:47:14;;;;;;;30.65;21.45;;;5.50;99.90;;;;;;4974485;28;20096;-61
2022/04/21 02:49:45;;;;;;;26.52;16.98;;;5.30;99.90;;;;;;4974124;28;20078;-59
2022/04/21 02:52:12;;;;;;;22.63;16.02;;;5.30;99.90;;;;;;4974434;28;20453;-61
2022/04/21 02:57:23;;;;;;;22.40;14.52;;;5.40;99.90;;;;;;4974389;28;20038;-59
2022/04/21 02:59:54;;;;;;;20.08;12.88;;;5.50;99.90;;;;;;4974608;28;20389;-63
2022/04/21 03:02:22;;;;;;;18.23;13.05;;;5.50;99.90;;;;;;4974263;28;20034;-59
2022/04/21 03:04:49;;;;;;;16.95;12.40;;;5.50;99.90;;;;;;4974228;28;20358;-58
2022/04/21 03:07:17;;;;;;;20.00;14.27;;;5.50;99.90;;;;;;4974224;28;20540;-57
2022/04/21 03:09:43;;;;;;;18.67;12.95;;;5.60;99.90;;;;;;4974195;28;20465;-60
2022/04/21 03:12:10;;;;;;;20.60;14.07;;;5.50;99.90;;;;;;4974375;28;20465;-60
2022/04/21 03:14:40;;;;;;;22.23;14.88;;;5.50;99.90;;;;;;4974202;28;20027;-61
2022/04/21 03:17:07;;;;;;;23.05;15.77;;;5.60;99.90;;;;;;4974093;28;20025;-59
2022/04/21 03:19:34;;;;;;;20.35;13.10;;;5.60;99.90;;;;;;4974304;28;20066;-63
2022/04/21 03:24:45;;;;;;;15.93;10.95;;;5.60;99.90;;;;;;4974383;28;20033;-61
2022/04/21 03:27:12;;;;;;;13.35;10.52;;;5.60;99.90;;;;;;4974201;28;20371;-60
2022/04/21 03:29:38;;;;;;;13.15;9.45;;;5.60;99.90;;;;;;4974304;28;20033;-59
2022/04/21 03:32:12;;;;;;;12.18;10.05;;;5.60;99.90;;;;;;4974124;28;20035;-62
2022/04/21 03:34:40;;;;;;;;;;;5.60;99.90;;;;;;4974603;28;20454;-57
2022/04/21 03:37:10;;;;;;;16.63;10.55;;;5.60;99.90;;;;;;4973919;28;19906;-56
2022/04/21 03:39:37;;;;;;;23.25;15.27;;;5.60;99.90;;;;;;4974086;28;20086;-59
2022/04/21 03:42:04;;;;;;;16.13;11.40;;;5.60;99.90;;;;;;4974009;28;20027;-60
2022/04/21 03:44:30;;;;;;;26.88;18.27;;;5.50;99.90;;;;;;4974196;28;20027;-58
2022/04/21 03:46:57;;;;;;;23.70;16.45;;;5.50;99.90;;;;;;4974235;28;20026;-60
2022/04/21 03:49:28;;;;;;;20.60;14.13;;;5.40;99.90;;;;;;4973864;28;20027;-58
2022/04/21 03:51:54;;;;;;;20.17;12.82;;;5.30;99.90;;;;;;4973657;28;20047;-57
2022/04/21 03:54:20;;;;;;;16.80;14.32;;;5.40;99.90;;;;;;4973887;28;20499;-61
2022/04/21 03:56:46;;;;;;;28.73;19.98;;;5.40;99.90;;;;;;4976700;28;20019;-56
2022/04/21 03:59:11;;;;;;;29.48;19.38;;;5.40;99.90;;;;;;4977476;28;20090;-56
2022/04/21 04:01:37;;;;;;;23.08;15.13;;;5.30;99.90;;;;;;4977024;28;20056;-58
2022/04/21 04:04:03;;;;;;;21.00;15.23;;;5.30;99.90;;;;;;4977173;28;20023;-57
2022/04/21 04:11:57;;;;;;;32.95;19.85;;;5.50;99.90;;;;;;4977301;28;20396;-59
2022/04/21 04:14:22;;;;;;;30.30;18.95;;;5.50;99.90;;;;;;4977078;28;20023;-60
2022/04/21 04:16:48;;;;;;;35.13;21.10;;;5.40;99.90;;;;;;4976792;28;20388;-60
2022/04/21 04:19:14;;;;;;;26.77;17.13;;;5.50;99.90;;;;;;4976828;28;20509;-56
2022/04/21 04:21:40;;;;;;;30.27;18.30;;;5.50;99.90;;;;;;4977137;28;20026;-58
2022/04/21 04:24:06;;;;;;;25.58;16.20;;;5.60;99.90;;;;;;4976844;28;20023;-58
2022/04/21 04:26:32;;;;;;;26.08;15.82;;;5.60;99.90;;;;;;4976942;28;20392;-61
2022/04/21 04:28:59;;;;;;;22.50;14.60;;;5.70;99.90;;;;;;4977006;28;20038;-60
2022/04/21 04:31:25;;;;;;;18.50;14.00;;;5.80;99.90;;;;;;4976511;28;20023;-61
2022/04/21 04:33:50;;;;;;;22.65;13.35;;;5.70;99.90;;;;;;4976511;28;20119;-56
2022/04/21 04:36:16;;;;;;;19.35;13.43;;;5.80;99.90;;;;;;4976810;28;20121;-63
2022/04/21 04:38:45;;;;;;;21.55;14.32;;;5.80;99.90;;;;;;4976477;28;20027;-59
2022/04/21 04:43:56;;;;;;;19.90;13.95;;;5.90;99.90;;;;;;4976398;28;20082;-61
2022/04/21 04:46:37;;;;;;;19.10;12.95;;;5.90;99.90;;;;;;4976127;28;20026;-60
2022/04/21 04:49:09;;;;;;;15.88;12.30;;;5.90;99.90;;;;;;4976151;28;20031;-63
2022/04/21 04:51:37;;;;;;;23.35;14.90;;;6.00;99.90;;;;;;4976091;28;20049;-57
2022/04/21 04:54:06;;;;;;;16.83;11.70;;;6.10;99.90;;;;;;5000919;28;20465;-60
2022/04/21 04:56:36;;;;;;;18.90;13.23;;;6.10;99.90;;;;;;5005328;28;20034;-60
2022/04/21 04:59:02;;;;;;;24.02;15.90;;;6.20;99.90;;;;;;4999132;28;20038;-60
2022/04/21 05:01:41;;;;;;;23.13;15.73;;;6.20;99.90;;;;;;5000515;28;20026;-56
2022/04/21 05:04:15;;;;;;;17.48;12.43;;;6.20;99.90;;;;;;5002934;28;20027;-60
2022/04/21 05:06:49;;;;;;;17.85;12.27;;;6.20;99.90;;;;;;5000252;28;20051;-60
2022/04/21 05:09:19;;;;;;;;;;;6.30;99.90;;;;;;5002309;28;20122;-61
2022/04/21 05:11:46;;;;;;;20.67;11.60;;;6.40;99.90;;;;;;4993319;28;19941;-58
2022/04/21 05:14:14;;;;;;;14.10;10.82;;;6.40;99.90;;;;;;4993414;28;20046;-59
2022/04/21 05:16:40;;;;;;;16.65;12.20;;;6.50;99.90;;;;;;4991638;28;20014;-62
2022/04/21 05:19:07;;;;;;;20.45;12.25;;;6.60;99.90;;;;;;4990418;28;20093;-58
2022/04/21 05:21:34;;;;;;;21.30;14.63;;;6.60;99.90;;;;;;4990842;28;20110;-61
2022/04/21 05:24:01;;;;;;;33.97;21.88;;;6.60;99.90;;;;;;4988172;28;20105;-60
2022/04/21 05:26:28;;;;;;;28.70;19.15;;;6.70;99.90;;;;;;4979607;28;20033;-59
2022/04/21 05:28:56;;;;;;;24.50;16.00;;;6.80;99.90;;;;;;5000734;28;20092;-59
2022/04/21 05:31:23;;;;;;;20.27;14.88;;;6.80;99.90;;;;;;4993034;28;20423;-59
2022/04/21 05:33:49;;;;;;;34.13;19.58;;;6.90;99.90;;;;;;4990734;28;20085;-59
2022/04/21 05:36:15;;;;;;;77.68;46.13;;;7.00;99.90;;;;;;4994797;28;20029;-61
2022/04/21 05:38:41;;;;;;;96.30;55.13;;;7.10;99.90;;;;;;5002520;28;20399;-57
2022/04/21 05:41:07;;;;;;;89.15;52.45;;;7.10;99.90;;;;;;4986546;28;20092;-55
2022/04/21 05:43:47;;;;;;;84.78;49.15;;;7.00;99.90;;;;;;4996497;28;20498;-58
2022/04/21 05:46:14;;;;;;;72.30;46.58;;;7.00;99.90;;;;;;5000012;28;20034;-57
2022/04/21 05:48:41;;;;;;;83.45;49.33;;;7.20;99.90;;;;;;5000480;28;20038;-60
2022/04/21 05:51:11;;;;;;;89.35;51.22;;;7.30;99.90;;;;;;5002587;28;20109;-60
2022/04/21 05:53:39;;;;;;;67.72;41.95;;;7.20;99.90;;;;;;5008599;28;20049;-60
2022/04/21 05:56:09;;;;;;;61.30;37.72;;;7.30;99.90;;;;;;5011891;28;20113;-59
2022/04/21 05:58:37;;;;;;;67.15;41.75;;;7.40;99.90;;;;;;5012014;28;20100;-62
2022/04/21 06:01:08;;;;;;;58.50;35.38;;;7.60;99.90;;;;;;4993396;28;20033;-59
2022/04/21 06:03:38;;;;;;;57.50;36.35;;;7.50;99.90;;;;;;4989211;28;20040;-60
2022/04/21 06:06:09;;;;;;;51.92;31.70;;;7.50;99.90;;;;;;4978912;28;20026;-62
2022/04/21 06:08:35;;;;;;;45.97;29.08;;;7.60;99.90;;;;;;4980841;28;20064;-59
2022/04/21 06:11:01;;;;;;;38.05;27.08;;;7.70;99.90;;;;;;4983125;28;20051;-59
2022/04/21 06:13:27;;;;;;;34.13;22.77;;;7.90;99.90;;;;;;4973989;28;20038;-61
2022/04/21 06:15:54;;;;;;;32.90;23.52;;;8.10;99.90;;;;;;4987610;28;20030;-62
2022/04/21 06:18:20;;;;;;;31.52;21.92;;;8.40;99.90;;;;;;4979096;28;20035;-58
2022/04/21 06:20:47;;;;;;;38.80;26.67;;;8.50;99.90;;;;;;4993907;28;20499;-59
2022/04/21 06:23:13;;;;;;;40.00;28.60;;;8.60;99.90;;;;;;4998375;28;20496;-62
2022/04/21 06:25:40;;;;;;;36.25;26.45;;;8.70;99.90;;;;;;4999960;28;20036;-62
2022/04/21 06:28:05;;;;;;;30.75;23.38;;;8.70;99.90;;;;;;5001221;28;20026;-62
2022/04/21 06:30:31;;;;;;;28.67;21.30;;;8.90;99.90;;;;;;4994135;28;20026;-61
2022/04/21 06:33:00;;;;;;;31.13;23.60;;;9.40;98.80;;;;;;4996393;28;20061;-60
2022/04/21 06:35:29;;;;;;;31.10;22.65;;;10.00;95.50;;;;;;4989746;28;20026;-58
2022/04/21 06:37:56;;;;;;;29.95;21.38;;;10.20;93.50;;;;;;5000103;28;20054;-60
2022/04/21 06:40:22;;;;;;;30.70;22.25;;;10.30;91.80;;;;;;5001962;28;20116;-56
2022/04/21 06:42:49;;;;;;;29.40;22.33;;;10.30;91.10;;;;;;4996954;28;20030;-59
2022/04/21 06:48:02;;;;;;;31.83;20.88;;;10.80;91.00;;;;;;4996830;28;20090;-61
2022/04/21 06:50:35;;;;;;;30.13;19.88;;;11.40;89.40;;;;;;4989043;28;20540;-57
2022/04/21 06:53:02;;;;;;;32.08;22.55;;;11.20;86.30;;;;;;4991895;28;20046;-59
2022/04/21 06:55:28;;;;;;;27.35;20.20;;;10.80;87.30;;;;;;4996014;28;20029;-58
2022/04/21 06:57:54;;;;;;;31.58;23.38;;;10.80;87.00;;;;;;5000761;28;20037;-60
2022/04/21 07:00:29;;;;;;;30.27;22.92;;;11.00;86.50;;;;;;4983620;28;20030;-65
2022/04/21 07:02:57;;;;;;;33.05;24.25;;;11.50;86.40;;;;;;4975557;28;20323;-64
2022/04/21 07:05:24;;;;;;;33.83;23.67;;;12.00;85.80;;;;;;4973378;28;20061;-57
2022/04/21 07:07:51;;;;;;;30.20;22.20;;;12.80;80.20;;;;;;4986763;28;20035;-62
2022/04/21 07:10:18;;;;;;;35.78;26.80;;;13.20;78.90;;;;;;4986206;28;20488;-61
2022/04/21 07:12:45;;;;;;;46.05;30.63;;;12.90;79.60;;;;;;4989820;28;20034;-66
2022/04/21 07:15:11;;;;;;;48.38;32.92;;;12.70;82.20;;;;;;4974785;28;20033;-65
2022/04/21 07:17:38;;;;;;;54.92;35.45;;;12.80;80.90;;;;;;4990342;28;20061;-63
2022/04/21 07:20:06;;;;;;;52.47;36.95;;;13.10;78.40;;;;;;4989645;28;20473;-61
2022/04/21 07:22:32;;;;;;;52.25;36.15;;;13.00;80.30;;;;;;4991064;28;20085;-58
2022/04/21 07:25:00;;;;;;;48.33;35.05;;;12.80;82.00;;;;;;4990104;28;20395;-67
2022/04/21 07:27:26;;;;;;;53.90;35.55;;;13.00;84.50;;;;;;4990506;28;20077;-61
2022/04/21 07:29:51;;;;;;;51.03;34.42;;;13.70;81.40;;;;;;4993237;28;20030;-62
2022/04/21 07:32:18;;;;;;;45.30;32.85;;;14.30;77.90;;;;;;4996893;28;20084;-64
2022/04/21 07:34:44;;;;;;;45.22;33.13;;;14.60;76.20;;;;;;4994528;28;20026;-67
2022/04/21 07:37:10;;;;;;;40.78;30.13;;;14.60;77.80;;;;;;4995528;28;20026;-62
2022/04/21 07:39:37;;;;;;;36.65;27.30;;;14.80;74.20;;;;;;4995545;28;20515;-63
2022/04/21 07:42:05;;;;;;;35.63;26.38;;;15.20;70.90;;;;;;4994672;28;20396;-61
2022/04/21 07:44:34;;;;;;;38.05;28.23;;;15.00;72.60;;;;;;4994874;28;20038;-66
2022/04/21 07:46:59;;;;;;;35.85;26.73;;;14.50;73.30;;;;;;4995877;28;20368;-64
2022/04/21 07:54:54;;;;;;;31.10;24.00;;;15.00;73.10;;;;;;4981957;28;20142;-67
2022/04/21 07:57:20;;;;;;;30.08;23.88;;;16.70;68.30;;;;;;4978581;28;20536;-63
2022/04/21 07:59:47;;;;;;;27.33;22.65;;;18.20;62.00;;;;;;4984810;28;20084;-63
2022/04/21 08:02:15;;;;;;;29.25;21.98;;;19.10;58.60;;;;;;4986516;28;20440;-62
2022/04/21 08:04:43;;;;;;;22.67;17.98;;;19.80;57.80;;;;;;4986539;28;20030;-62
2022/04/21 08:07:09;;;;;;;20.33;17.45;;;20.60;53.70;;;;;;4989058;28;20041;-65
2022/04/21 08:09:35;;;;;;;21.17;17.50;;;20.80;52.80;;;;;;4989554;28;20080;-62
2022/04/21 08:12:01;;;;;;;19.00;16.45;;;20.90;51.70;;;;;;4991108;28;20027;-68
2022/04/21 08:14:28;;;;;;;17.88;14.88;;;21.00;50.60;;;;;;4990292;28;20468;-68
2022/04/21 08:16:54;;;;;;;17.35;13.55;;;20.50;47.80;;;;;;4990753;28;20023;-66
2022/04/21 08:19:23;;;;;;;13.57;11.80;;;19.80;48.00;;;;;;4989967;28;20031;-66
2022/04/21 08:21:48;;;;;;;13.02;10.45;;;19.40;49.90;;;;;;4987312;28;20038;-76
2022/04/21 08:32:46;;;;;;;12.40;9.35;;;20.90;47.90;;;;;;4988208;28;20157;-64
2022/04/21 08:35:13;;;;;;;11.52;9.20;;;21.80;46.10;;;;;;4989352;28;20040;-70
2022/04/21 08:37:45;;;;;;;11.23;9.38;;;22.40;46.10;;;;;;4990707;28;20065;-64
2022/04/21 08:40:11;;;;;;;10.23;9.00;;;22.80;46.90;;;;;;4988535;28;20033;-65
2022/04/21 08:42:41;;;;;;;10.73;9.07;;;22.30;44.90;;;;;;5002412;28;20022;-67
2022/04/21 08:45:10;;;;;;;10.95;9.20;;;21.50;46.60;;;;;;4994371;28;20036;-66
2022/04/21 08:47:50;;;;;;;19.38;14.07;;;20.80;46.00;;;;;;4994875;28;20088;-68
2022/04/21 08:50:16;;;;;;;15.90;13.88;;;20.20;47.60;;;;;;4996489;28;20117;-62
2022/04/21 08:52:43;;;;;;;16.80;13.75;;;19.50;49.90;;;;;;4977763;28;20043;-71
2022/04/21 08:55:12;;;;;;;19.33;15.55;;;19.20;48.60;;;;;;4990684;28;20022;-70
2022/04/21 08:57:38;;;;;;;17.27;13.55;;;19.00;48.30;;;;;;4988394;28;20022;-66
2022/04/21 09:00:06;;;;;;;17.45;14.77;;;18.90;48.60;;;;;;4988990;28;20022;-68
2022/04/21 09:02:44;;;;;;;17.08;14.57;;;18.80;50.70;;;;;;4985360;28;20660;-66
2022/04/21 09:05:11;;;;;;;23.70;16.65;;;18.50;50.60;;;;;;4989630;28;20018;-67
2022/04/21 09:07:48;;;;;;;18.95;15.32;;;18.50;53.30;;;;;;4988770;28;20038;-69
2022/04/21 09:10:15;;;;;;;23.15;16.70;;;18.40;50.50;;;;;;4992122;28;20038;-69
2022/04/21 09:12:44;;;;;;;18.45;14.55;;;18.50;51.50;;;;;;4995973;28;20103;-69
2022/04/21 09:15:18;;;;;;;17.48;13.95;;;18.50;51.40;;;;;;5001477;28;20086;-67
2022/04/21 09:17:47;;;;;;;17.60;14.52;;;18.70;49.20;;;;;;4997649;28;20499;-71
2022/04/21 09:20:18;;;;;;;25.58;16.92;;;18.80;49.80;;;;;;5011072;28;20080;-69
2022/04/21 09:22:54;;;;;;;17.65;14.45;;;18.80;51.20;;;;;;5010904;28;20029;-66
2022/04/21 09:25:54;;;;;;;19.75;15.18;;;18.60;50.90;;;;;;5000992;28;20125;-64
2022/04/21 09:28:30;;;;;;;17.13;13.98;;;18.50;50.50;;;;;;4998322;28;20053;-68
2022/04/21 09:30:59;;;;;;;17.23;14.50;;;18.40;51.00;;;;;;4998720;28;20026;-67
2022/04/21 09:33:30;;;;;;;19.25;16.38;;;18.50;50.70;;;;;;4993041;28;20034;-70
2022/04/21 09:35:58;;;;;;;18.98;15.40;;;18.50;50.90;;;;;;4999074;28;20037;-65
2022/04/21 09:38:25;;;;;;;18.88;14.15;;;18.40;51.50;;;;;;5002033;28;20022;-67
2022/04/21 09:40:51;;;;;;;15.38;12.70;;;18.30;49.10;;;;;;4991033;28;20557;-67
2022/04/21 09:43:28;;;;;;;15.30;12.10;;;18.20;50.00;;;;;;4992981;28;20102;-68
2022/04/21 09:46:10;;;;;;;12.98;11.00;;;18.30;48.10;;;;;;4997040;28;20436;-66
2022/04/21 09:48:36;;;;;;;12.68;11.00;;;18.40;49.10;;;;;;5001797;28;20031;-67
2022/04/21 09:51:15;;;;;;;12.50;10.23;;;18.50;48.00;;;;;;4999446;28;20022;-67
2022/04/21 09:53:51;;;;;;;11.80;8.90;;;18.60;50.10;;;;;;5001002;28;20144;-67
2022/04/21 09:56:17;;;;;;;11.85;8.13;;;18.60;46.70;;;;;;5004130;28;20362;-67
2022/04/21 09:58:46;;;;;;;10.00;7.70;;;18.60;47.80;;;;;;5003667;28;20028;-62
2022/04/21 10:01:12;;;;;;;8.55;7.00;;;18.70;46.60;;;;;;5000502;28;20144;-63
2022/04/21 10:03:41;;;;;;;9.63;7.53;;;18.80;46.00;;;;;;5002070;28;20160;-58
2022/04/21 10:06:07;;;;;;;10.68;8.98;;;19.00;44.80;;;;;;4991435;28;20093;-58
2022/04/21 10:08:34;;;;;;;11.30;8.98;;;18.90;45.50;;;;;;4983696;28;20165;-62
2022/04/21 10:11:00;;;;;;;13.07;10.02;;;19.00;45.80;;;;;;4986611;28;20025;-57
2022/04/21 10:13:26;;;;;;;12.88;8.90;;;19.10;45.10;;;;;;4989546;28;20034;-62
2022/04/21 10:15:52;;;;;;;10.05;8.23;;;19.10;44.90;;;;;;4991276;28;20091;-63
2022/04/21 10:18:19;;;;;;;11.68;8.93;;;19.10;46.60;;;;;;4998851;28;20164;-59
2022/04/21 10:20:46;;;;;;;12.90;9.73;;;19.00;46.80;;;;;;4988694;28;20019;-59
2022/04/21 10:23:19;;;;;;;11.02;9.05;;;18.90;48.60;;;;;;4983259;28;20061;-63
2022/04/21 10:25:45;;;;;;;9.82;7.88;;;18.90;49.10;;;;;;4991786;28;20149;-56
2022/04/21 10:28:42;;;;;;;9.07;7.68;;;19.00;45.50;;;;;;4997078;28;20049;-55
2022/04/21 10:31:31;;;;;;;10.40;7.45;;;19.10;46.90;;;;;;4990587;28;20022;-55
2022/04/21 10:34:05;;;;;;;7.30;6.28;;;19.10;46.50;;;;;;4989137;28;20041;-62
2022/04/21 10:36:34;;;;;;;7.78;6.38;;;19.20;48.50;;;;;;4990205;28;20296;-58
2022/04/21 10:39:18;;;;;;;6.53;5.93;;;19.40;45.80;;;;;;4994568;28;20416;-59
2022/04/21 10:41:45;;;;;;;8.23;6.75;;;19.50;45.80;;;;;;4991495;28;20027;-64
2022/04/21 10:44:26;;;;;;;7.80;6.68;;;19.60;44.30;;;;;;4991002;28;20105;-61
2022/04/21 10:47:31;;;;;;;10.30;8.18;;;19.60;45.70;;;;;;4990513;28;20053;-64
2022/04/21 10:50:19;;;;;;;15.20;10.77;;;19.50;46.40;;;;;;4985999;28;20042;-56
2022/04/21 10:58:35;;;;;;;14.60;11.65;;;19.00;48.20;;;;;;4971326;28;20440;-62
2022/04/21 11:01:11;;;;;;;12.98;11.32;;;19.00;46.50;;;;;;4973259;28;20031;-58
2022/04/21 11:03:37;;;;;;;16.10;10.93;;;19.00;46.70;;;;;;4974022;28;20023;-58
2022/04/21 11:06:05;;;;;;;12.15;10.85;;;19.40;46.30;;;;;;4979967;28;20023;-61
2022/04/21 11:08:31;;;;;;;13.93;11.50;;;19.70;46.20;;;;;;5003119;28;20554;-60
2022/04/21 11:10:57;;;;;;;13.05;10.75;;;19.90;46.40;;;;;;5008527;28;20144;-60
2022/04/21 11:13:42;;;;;;;16.77;13.80;;;19.90;47.40;;;;;;5015077;28;20109;-56
2022/04/21 11:16:09;;;;;;;18.48;13.63;;;19.60;46.50;;;;;;5007559;28;20026;-59
2022/04/21 11:18:35;;;;;;;18.08;14.65;;;19.30;47.80;;;;;;4993595;28;20019;-62
2022/04/21 11:21:26;;;;;;;15.02;12.95;;;19.20;47.20;;;;;;4996780;28;20030;-60
2022/04/21 11:23:52;;;;;;;13.65;11.18;;;19.40;48.40;;;;;;4994128;28;20027;-56
2022/04/21 11:26:25;;;;;;;13.77;11.13;;;19.60;48.10;;;;;;4990308;28;20030;-57
2022/04/21 11:28:51;;;;;;;15.68;12.40;;;19.60;47.70;;;;;;4995875;28;20027;-61
2022/04/21 11:31:21;;;;;;;12.40;11.00;;;19.80;48.50;;;;;;4997562;28;20380;-57
2022/04/21 11:33:47;;;;;;;12.80;10.65;;;19.90;48.40;;;;;;4996865;28;20030;-59
2022/04/21 11:36:15;;;;;;;12.20;10.32;;;20.10;50.40;;;;;;4985140;28;20431;-58
2022/04/21 11:38:43;;;;;;;11.98;10.35;;;20.30;48.00;;;;;;4994836;28;20038;-57
2022/04/21 11:41:10;;;;;;;13.75;10.90;;;20.40;48.50;;;;;;4999668;28;20080;-56
2022/04/21 11:43:45;;;;;;;14.30;11.20;;;20.60;49.80;;;;;;4994347;28;20035;-56
2022/04/21 11:46:12;;;;;;;13.13;10.50;;;20.70;49.40;;;;;;4987673;28;20306;-60
2022/04/21 11:48:40;;;;;;;11.75;9.55;;;20.70;48.70;;;;;;4997605;28;20077;-61
2022/04/21 11:51:08;;;;;;;11.02;9.77;;;20.80;47.00;;;;;;5003470;28;20019;-52
2022/04/21 11:53:36;;;;;;;12.23;10.80;;;20.90;46.70;;;;;;5000701;28;20487;-57
2022/04/21 11:56:05;;;;;;;10.77;9.50;;;20.80;49.00;;;;;;4996255;28;20030;-58
2022/04/21 11:58:37;;;;;;;10.82;9.00;;;20.80;47.10;;;;;;4993664;28;20265;-56
2022/04/21 12:06:53;;;;;;;9.38;8.48;;;20.90;47.40;;;;;;4981171;28;20033;-57
2022/04/21 12:09:21;;;;;;;9.25;7.95;;;21.00;48.50;;;;;;4982693;28;20039;-62
2022/04/21 12:11:49;;;;;;;12.63;9.75;;;21.10;46.90;;;;;;4982303;28;20458;-62
2022/04/21 12:14:16;;;;;;;15.23;13.38;;;21.30;46.20;;;;;;4979094;28;20031;-61
2022/04/21 12:16:42;;;;;;;14.88;11.93;;;21.70;44.40;;;;;;4976460;28;20030;-56
2022/04/21 12:19:13;;;;;;;15.32;11.75;;;21.90;45.80;;;;;;4981306;28;20023;-53
2022/04/21 12:21:39;;;;;;;14.35;11.60;;;22.00;45.10;;;;;;4979209;28;20403;-58
2022/04/21 12:24:16;;;;;;;17.95;11.90;;;22.10;45.30;;;;;;4990825;28;20701;-58
2022/04/21 12:26:53;;;;;;;14.65;11.90;;;22.20;46.40;;;;;;4984054;28;20117;-58
2022/04/21 12:29:20;;;;;;;14.45;10.70;;;21.90;44.20;;;;;;4980408;28;20047;-58
2022/04/21 12:31:55;;;;;;;14.07;9.35;;;22.10;48.40;;;;;;4981173;28;20026;-60
2022/04/21 12:34:31;;;;;;;10.45;9.35;;;22.30;47.70;;;;;;4992854;28;20039;-59
2022/04/21 12:37:01;;;;;;;11.93;8.80;;;22.20;47.70;;;;;;4995433;28;20033;-58
2022/04/21 12:39:29;;;;;;;9.30;8.40;;;22.10;47.00;;;;;;4994364;28;20018;-61
2022/04/21 12:41:57;;;;;;;9.27;8.23;;;21.90;45.10;;;;;;4995361;28;20161;-57
2022/04/21 12:44:25;;;;;;;7.93;6.88;;;21.80;46.80;;;;;;4994848;28;20101;-60
2022/04/21 12:46:58;;;;;;;8.50;7.70;;;21.80;46.50;;;;;;4994145;28;20033;-57
2022/04/21 12:49:57;;;;;;;9.88;8.23;;;21.80;44.60;;;;;;4993995;28;20041;-54
2022/04/21 12:52:32;;;;;;;12.75;10.25;;;21.60;45.00;;;;;;4989326;28;20057;-56
2022/04/21 12:54:58;;;;;;;14.38;10.57;;;21.40;44.10;;;;;;4994018;28;20023;-55
2022/04/21 12:57:24;;;;;;;12.55;9.73;;;20.80;45.00;;;;;;4994286;28;20029;-57
2022/04/21 12:59:51;;;;;;;8.90;8.00;;;20.50;46.10;;;;;;4994839;28;20026;-56
2022/04/21 13:02:19;;;;;;;8.13;7.30;;;20.60;45.20;;;;;;4994906;28;20102;-58
2022/04/21 13:04:46;;;;;;;8.13;6.60;;;20.80;45.50;;;;;;4993331;28;20046;-58
2022/04/21 13:07:11;;;;;;;6.82;6.13;;;20.70;45.30;;;;;;4993811;28;20037;-55
2022/04/21 13:09:37;;;;;;;8.30;6.40;;;20.90;46.10;;;;;;4993624;28;20393;-58
2022/04/21 13:12:04;;;;;;;8.40;6.65;;;21.10;46.10;;;;;;4993520;28;20073;-55
2022/04/21 13:14:29;;;;;;;8.35;6.25;;;21.00;45.10;;;;;;4993158;28;20022;-58
2022/04/21 13:16:55;;;;;;;7.25;6.18;;;20.80;46.60;;;;;;4993278;28;20026;-61
2022/04/21 13:19:21;;;;;;;9.30;6.30;;;20.70;46.80;;;;;;4994327;28;20033;-54
2022/04/21 13:21:52;;;;;;;6.30;5.40;;;20.40;47.40;;;;;;4995332;28;20057;-62
2022/04/21 13:24:29;;;;;;;7.10;5.43;;;20.20;48.40;;;;;;4995052;28;20546;-53
2022/04/21 13:26:57;;;;;;;5.35;4.72;;;20.10;48.70;;;;;;4994911;28;20066;-62
2022/04/21 13:29:23;;;;;;;6.22;4.75;;;20.10;49.20;;;;;;4994795;28;20037;-59
2022/04/21 13:34:35;;;;;;;5.90;4.97;;;19.90;48.70;;;;;;4995302;28;20508;-57